Time;durP1;ratioP1;P1;durP2;ratioP2;P2;SDS_P1;SDS_P2;PMS_P1;PMS_P2;Temp;Humidity;BMP_temperature;BMP_pressure;BME280_temperature;BME280_humidity;BME280_pressure;Samples;Min_cycle;Max_cycle;Signal;HPM_P1;HPM_P2
2023/03/27 00:01:22;;;;;;;527.83;502.83;;;2.30;99.90;;;;;;5056484;28;20455;-78
2023/03/27 00:03:50;;;;;;;521.83;498.03;;;2.30;99.90;;;;;;5073641;28;20454;-78
2023/03/27 00:06:18;;;;;;;545.93;520.43;;;2.20;99.90;;;;;;5074504;28;20484;-78
2023/03/27 00:08:46;;;;;;;593.90;563.47;;;2.10;99.90;;;;;;5073745;28;20528;-78
2023/03/27 00:11:15;;;;;;;617.33;584.17;;;2.10;99.90;;;;;;5073914;28;20450;-78
2023/03/27 00:13:43;;;;;;;653.27;616.03;;;2.10;99.90;;;;;;5073961;28;20451;-79
2023/03/27 00:16:11;;;;;;;643.97;605.07;;;2.20;99.90;;;;;;5074018;28;20454;-78
2023/03/27 00:18:38;;;;;;;593.40;559.20;;;2.20;99.90;;;;;;5073920;28;20467;-78
2023/03/27 00:21:05;;;;;;;595.90;562.93;;;2.20;99.90;;;;;;5074105;28;20827;-78
2023/03/27 00:23:33;;;;;;;542.77;513.07;;;2.10;99.90;;;;;;5073128;28;20455;-78
2023/03/27 00:26:00;;;;;;;494.13;468.37;;;2.10;99.90;;;;;;5074284;28;20606;-78
2023/03/27 00:28:29;;;;;;;472.70;447.70;;;2.20;99.90;;;;;;5055981;28;20478;-78
2023/03/27 00:30:57;;;;;;;491.80;467.00;;;1.90;99.90;;;;;;5073852;28;20485;-78
2023/03/27 00:33:25;;;;;;;511.40;485.23;;;1.90;99.90;;;;;;5073561;28;20479;-78
2023/03/27 00:35:52;;;;;;;518.00;492.00;;;1.70;99.90;;;;;;5074186;28;20447;-78
2023/03/27 00:38:21;;;;;;;501.57;479.30;;;1.70;99.90;;;;;;5073804;28;20474;-78
2023/03/27 00:40:49;;;;;;;527.30;501.83;;;1.60;99.90;;;;;;5073654;28;20508;-78
2023/03/27 00:43:22;;;;;;;562.63;534.47;;;1.50;99.90;;;;;;5073472;28;20474;-78
2023/03/27 00:45:55;;;;;;;582.97;551.27;;;1.60;99.90;;;;;;5055381;28;20467;-78
2023/03/27 00:48:24;;;;;;;537.53;511.13;;;1.60;99.90;;;;;;5073398;28;20470;-78
2023/03/27 00:50:52;;;;;;;570.63;540.10;;;1.70;99.90;;;;;;5038944;28;20447;-78
2023/03/27 00:53:22;;;;;;;578.10;546.43;;;1.70;99.90;;;;;;5055241;28;20451;-78
2023/03/27 00:55:53;;;;;;;527.47;501.45;;;1.60;99.90;;;;;;5073249;28;20450;-78
2023/03/27 00:58:24;;;;;;;537.80;509.10;;;1.70;99.90;;;;;;5073384;28;20212;-78
2023/03/27 01:00:55;;;;;;;525.23;499.37;;;1.70;99.90;;;;;;5073354;28;20450;-78
2023/03/27 01:03:24;;;;;;;502.03;479.03;;;1.60;99.90;;;;;;5073543;28;20450;-78
2023/03/27 01:05:53;;;;;;;475.23;455.67;;;1.40;99.90;;;;;;5073108;28;20473;-78
2023/03/27 01:08:21;;;;;;;490.40;468.83;;;1.50;99.90;;;;;;5072620;28;20482;-78
2023/03/27 01:10:55;;;;;;;557.23;528.67;;;1.40;99.90;;;;;;5072055;28;20453;-78
2023/03/27 01:13:41;;;;;;;541.63;515.87;;;1.30;99.90;;;;;;5072852;28;20450;-78
2023/03/27 01:16:17;;;;;;;471.30;452.70;;;1.20;99.90;;;;;;5072780;28;20537;-78
2023/03/27 01:18:57;;;;;;;495.93;474.63;;;1.20;99.90;;;;;;5071914;28;20466;-78
2023/03/27 01:21:45;;;;;;;442.93;425.43;;;1.30;99.90;;;;;;5072936;28;20454;-78
2023/03/27 01:24:50;;;;;;;513.67;490.35;;;1.40;99.90;;;;;;5054259;28;20458;-78
2023/03/27 01:27:20;;;;;;;463.77;445.30;;;1.40;99.90;;;;;;5072740;28;20204;-78
2023/03/27 01:30:10;;;;;;;479.67;459.60;;;1.40;99.90;;;;;;5072790;28;20561;-78
2023/03/27 01:33:08;;;;;;;531.80;506.63;;;1.50;99.90;;;;;;5072342;28;20454;-78
2023/03/27 01:36:03;;;;;;;525.17;500.37;;;1.60;99.90;;;;;;5052778;28;20494;-78
2023/03/27 01:39:06;;;;;;;526.13;502.03;;;1.40;99.90;;;;;;5068483;28;20473;-78
2023/03/27 01:41:39;;;;;;;534.70;509.03;;;1.30;99.90;;;;;;5072432;28;20460;-78
2023/03/27 01:44:14;;;;;;;501.85;480.80;;;1.10;99.90;;;;;;5072460;28;20822;-78
2023/03/27 01:46:48;;;;;;;435.67;418.97;;;1.10;99.90;;;;;;5072138;28;20200;-78
2023/03/27 01:49:20;;;;;;;357.00;344.30;;;1.10;99.90;;;;;;5072323;28;20565;-78
2023/03/27 01:51:52;;;;;;;560.53;534.37;;;1.20;99.90;;;;;;5071857;28;20508;-78
2023/03/27 01:54:24;;;;;;;566.07;537.83;;;1.20;99.90;;;;;;5071478;28;20447;-78
2023/03/27 01:57:01;;;;;;;572.77;542.77;;;1.20;99.90;;;;;;5054539;28;20801;-78
2023/03/27 01:59:32;;;;;;;589.67;558.47;;;1.10;99.90;;;;;;5071933;28;20462;-78
2023/03/27 02:02:03;;;;;;;515.00;491.70;;;1.00;99.90;;;;;;5072456;28;20880;-78
2023/03/27 02:04:36;;;;;;;422.83;406.77;;;1.10;99.90;;;;;;5054632;28;20815;-78
2023/03/27 02:07:06;;;;;;;568.97;539.03;;;1.10;99.90;;;;;;5072112;28;20962;-78
2023/03/27 02:09:36;;;;;;;568.27;538.67;;;1.20;99.90;;;;;;5071764;28;20485;-78
2023/03/27 02:12:10;;;;;;;524.33;499.63;;;1.20;99.90;;;;;;5071749;28;20473;-78
2023/03/27 02:14:40;;;;;;;605.73;572.20;;;1.20;99.90;;;;;;5071757;28;20523;-78
2023/03/27 02:17:10;;;;;;;590.23;557.57;;;1.20;99.90;;;;;;5071903;28;20450;-78
2023/03/27 02:19:46;;;;;;;546.67;519.33;;;1.20;99.90;;;;;;5071737;28;20498;-78
2023/03/27 02:22:13;;;;;;;586.03;555.63;;;1.20;99.90;;;;;;5071837;28;20450;-77
2023/03/27 02:24:40;;;;;;;594.70;562.37;;;1.10;99.90;;;;;;5053901;28;20457;-78
2023/03/27 02:27:14;;;;;;;594.83;562.33;;;1.10;99.90;;;;;;5054021;28;20799;-78
2023/03/27 02:29:48;;;;;;;630.80;594.33;;;1.00;99.90;;;;;;5071250;28;20300;-78
2023/03/27 02:32:27;;;;;;;637.93;599.57;;;1.00;99.90;;;;;;5052852;28;20533;-78
2023/03/27 02:35:22;;;;;;;660.03;620.77;;;0.90;99.90;;;;;;5071859;28;20878;-78
2023/03/27 02:38:00;;;;;;;640.47;601.47;;;0.90;99.90;;;;;;5070986;28;20476;-78
2023/03/27 02:40:36;;;;;;;671.90;628.92;;;0.90;99.90;;;;;;5071874;28;20513;-78
2023/03/27 02:43:10;;;;;;;686.10;641.60;;;0.80;99.90;;;;;;5053440;28;20257;-78
2023/03/27 02:45:53;;;;;;;708.13;660.73;;;0.70;99.90;;;;;;5071214;28;20532;-78
2023/03/27 02:48:27;;;;;;;693.60;647.17;;;0.80;99.90;;;;;;5036265;28;20471;-78
2023/03/27 02:50:58;;;;;;;670.03;625.77;;;0.80;99.90;;;;;;5057701;28;20989;-78
2023/03/27 02:53:31;;;;;;;668.93;623.43;;;0.90;99.90;;;;;;5071105;28;20461;-78
2023/03/27 02:56:02;;;;;;;637.73;593.53;;;1.00;99.90;;;;;;5071865;28;20859;-78
2023/03/27 02:58:35;;;;;;;623.03;583.27;;;1.00;99.90;;;;;;5070911;28;20470;-78
2023/03/27 03:01:08;;;;;;;621.07;582.67;;;0.90;99.90;;;;;;5070915;28;20802;-79
2023/03/27 03:03:40;;;;;;;627.70;588.27;;;1.00;99.90;;;;;;5070829;28;20454;-78
2023/03/27 03:06:09;;;;;;;639.90;597.63;;;1.00;99.90;;;;;;5071104;28;20830;-78
2023/03/27 03:08:38;;;;;;;622.03;582.97;;;1.10;99.90;;;;;;5071212;28;20565;-78
2023/03/27 03:11:08;;;;;;;630.27;590.27;;;0.80;99.90;;;;;;5070827;28;20892;-78
2023/03/27 03:13:36;;;;;;;637.13;595.73;;;0.90;99.90;;;;;;5059027;28;20447;-78
2023/03/27 03:16:03;;;;;;;650.90;608.80;;;0.90;99.90;;;;;;5071164;28;20450;-78
2023/03/27 03:18:30;;;;;;;665.33;622.33;;;0.70;99.90;;;;;;5070296;28;20477;-78
2023/03/27 03:21:03;;;;;;;694.00;648.57;;;0.60;99.90;;;;;;5071288;28;20446;-78
2023/03/27 03:23:31;;;;;;;706.70;659.20;;;0.60;99.90;;;;;;5070797;28;20485;-78
2023/03/27 03:25:58;;;;;;;699.92;654.97;;;0.70;99.90;;;;;;5070896;28;20494;-78
2023/03/27 03:28:25;;;;;;;689.83;646.20;;;0.50;99.90;;;;;;5070570;28;20212;-78
2023/03/27 03:30:57;;;;;;;698.87;652.50;;;0.40;99.90;;;;;;5070073;28;20501;-78
2023/03/27 03:33:26;;;;;;;669.30;628.03;;;0.50;99.90;;;;;;5051256;28;20820;-78
2023/03/27 03:35:53;;;;;;;673.07;629.30;;;0.40;99.90;;;;;;5064835;28;20946;-78
2023/03/27 03:38:23;;;;;;;647.13;609.83;;;0.40;99.90;;;;;;5074251;28;20538;-78
2023/03/27 03:40:52;;;;;;;670.00;628.80;;;0.40;99.90;;;;;;5048199;28;20534;-78
2023/03/27 03:43:22;;;;;;;670.47;630.17;;;0.40;99.90;;;;;;5073611;28;20450;-79
2023/03/27 03:45:50;;;;;;;661.60;622.30;;;0.30;99.90;;;;;;5069215;22;20567;-79
2023/03/27 03:48:19;;;;;;;648.40;610.53;;;0.30;99.90;;;;;;5031869;28;20562;-79
2023/03/27 03:50:47;;;;;;;662.80;624.00;;;0.20;99.90;;;;;;5033963;28;20468;-79
2023/03/27 03:53:15;;;;;;;681.97;637.97;;;0.40;99.90;;;;;;5034192;28;20830;-79
2023/03/27 03:55:42;;;;;;;658.17;615.90;;;0.50;99.90;;;;;;5034437;28;20463;-79
2023/03/27 03:58:09;;;;;;;640.77;602.20;;;0.50;99.90;;;;;;5034610;28;20479;-79
2023/03/27 04:00:39;;;;;;;630.17;590.17;;;0.40;99.90;;;;;;5016829;28;20460;-79
2023/03/27 04:03:07;;;;;;;618.57;582.97;;;0.60;99.90;;;;;;5034493;28;20475;-79
2023/03/27 04:05:36;;;;;;;641.65;601.28;;;0.50;99.90;;;;;;5034358;28;20535;-80
2023/03/27 04:08:06;;;;;;;641.93;600.97;;;0.60;99.90;;;;;;5034263;28;20740;-79
2023/03/27 04:10:33;;;;;;;652.17;610.27;;;0.60;99.90;;;;;;5034057;28;20508;-79
2023/03/27 04:13:00;;;;;;;656.00;614.25;;;0.70;99.90;;;;;;5030931;28;21107;-79
2023/03/27 04:15:29;;;;;;;649.13;605.77;;;0.60;99.90;;;;;;5034234;28;20201;-79
2023/03/27 04:17:56;;;;;;;651.50;606.80;;;0.70;99.90;;;;;;5034194;28;20878;-79
2023/03/27 04:20:25;;;;;;;650.83;604.83;;;0.70;99.90;;;;;;5034226;28;20510;-79
2023/03/27 04:22:56;;;;;;;638.30;593.50;;;0.70;99.90;;;;;;5034347;28;21023;-80
2023/03/27 04:25:25;;;;;;;643.67;599.73;;;0.70;99.90;;;;;;5016621;28;20463;-79
2023/03/27 04:27:52;;;;;;;655.20;609.00;;;0.70;99.90;;;;;;5033697;28;20476;-79
2023/03/27 04:30:22;;;;;;;661.43;614.00;;;0.60;99.90;;;;;;5016238;28;20471;-79
2023/03/27 04:32:50;;;;;;;662.63;616.00;;;0.60;99.90;;;;;;5015718;28;20449;-79
2023/03/27 04:35:17;;;;;;;670.53;623.00;;;0.60;99.90;;;;;;5033858;28;20476;-79
2023/03/27 04:37:45;;;;;;;665.60;618.70;;;0.60;99.90;;;;;;5015980;28;20478;-79
2023/03/27 04:40:17;;;;;;;678.37;630.07;;;0.50;99.90;;;;;;5014501;28;20483;-79
2023/03/27 04:42:45;;;;;;;684.45;634.70;;;0.60;99.90;;;;;;5016201;28;20468;-79
2023/03/27 04:45:13;;;;;;;699.63;648.83;;;0.40;99.90;;;;;;5032403;28;20686;-79
2023/03/27 04:47:41;;;;;;;709.73;658.67;;;0.50;99.90;;;;;;5016140;28;20476;-79
2023/03/27 04:50:10;;;;;;;702.30;649.83;;;0.70;99.90;;;;;;5033953;28;20487;-79
2023/03/27 04:52:38;;;;;;;710.83;658.73;;;0.70;99.90;;;;;;5033314;28;20475;-79
2023/03/27 04:55:07;;;;;;;694.73;643.70;;;0.70;99.90;;;;;;5033323;28;20453;-79
2023/03/27 04:57:36;;;;;;;695.70;645.63;;;0.90;99.90;;;;;;5033667;28;20488;-79
2023/03/27 05:00:15;;;;;;;692.83;641.47;;;1.00;99.90;;;;;;5033524;28;20448;-79
2023/03/27 05:02:43;;;;;;;686.30;634.20;;;1.00;99.90;;;;;;5029118;28;20453;-79
2023/03/27 05:05:12;;;;;;;693.57;639.83;;;1.00;99.90;;;;;;5033544;28;20460;-79
2023/03/27 05:07:38;;;;;;;703.17;648.77;;;1.20;99.90;;;;;;5033277;28;20551;-79
2023/03/27 05:10:06;;;;;;;705.33;650.40;;;1.10;99.90;;;;;;5033130;28;20475;-80
2023/03/27 05:12:35;;;;;;;668.60;615.43;;;1.30;99.90;;;;;;5033126;28;20464;-78
2023/03/27 05:15:05;;;;;;;674.80;621.40;;;1.30;99.90;;;;;;5015682;28;20506;-79
2023/03/27 05:17:32;;;;;;;705.80;652.10;;;1.40;99.90;;;;;;5032417;28;20452;-79
2023/03/27 05:20:02;;;;;;;708.83;654.17;;;1.30;99.90;;;;;;5033315;28;20456;-79
2023/03/27 05:22:29;;;;;;;719.33;664.13;;;1.30;99.90;;;;;;5032396;28;20452;-79
2023/03/27 05:24:57;;;;;;;717.63;663.23;;;1.30;99.90;;;;;;5032837;28;20971;-79
2023/03/27 05:27:24;;;;;;;716.97;662.83;;;1.40;99.90;;;;;;5033456;28;20452;-79
2023/03/27 05:29:52;;;;;;;726.23;673.20;;;1.30;99.90;;;;;;5032636;28;20452;-79
2023/03/27 05:32:19;;;;;;;730.60;675.40;;;1.40;99.90;;;;;;5015367;28;20452;-79
2023/03/27 05:34:49;;;;;;;721.97;668.83;;;1.40;99.90;;;;;;5015003;28;20457;-79
2023/03/27 05:37:16;;;;;;;715.20;661.60;;;1.60;99.90;;;;;;5032939;28;20456;-77
2023/03/27 05:39:45;;;;;;;718.73;662.97;;;1.60;99.90;;;;;;5030646;28;20476;-79
2023/03/27 05:42:12;;;;;;;708.10;652.90;;;1.80;99.90;;;;;;5015275;28;20452;-79
2023/03/27 05:44:39;;;;;;;700.30;646.30;;;2.00;99.90;;;;;;5032820;28;20483;-80
2023/03/27 05:47:09;;;;;;;693.77;640.67;;;2.10;99.90;;;;;;5032328;28;20518;-80
2023/03/27 05:49:36;;;;;;;683.77;633.47;;;2.20;99.90;;;;;;5032243;28;20476;-80
2023/03/27 05:52:03;;;;;;;670.73;622.40;;;2.30;99.90;;;;;;5032556;28;20480;-80
2023/03/27 05:54:30;;;;;;;664.10;616.60;;;2.30;99.90;;;;;;5031965;28;20452;-79
2023/03/27 05:56:57;;;;;;;668.60;622.10;;;2.30;99.90;;;;;;5031928;28;20986;-80
2023/03/27 05:59:24;;;;;;;639.77;599.70;;;2.40;99.90;;;;;;5031987;28;20483;-79
2023/03/27 06:01:51;;;;;;;643.33;602.37;;;2.60;99.90;;;;;;5032176;28;20445;-80
2023/03/27 06:04:21;;;;;;;625.27;587.27;;;2.60;99.90;;;;;;5032196;28;20456;-80
2023/03/27 06:06:48;;;;;;;603.77;569.03;;;2.70;99.90;;;;;;5033024;28;20460;-80
2023/03/27 06:09:15;;;;;;;592.47;558.37;;;2.70;99.90;;;;;;4998678;28;20480;-79
2023/03/27 06:11:42;;;;;;;562.77;531.53;;;2.70;99.90;;;;;;5032148;28;20476;-80
2023/03/27 06:14:11;;;;;;;555.37;524.33;;;2.90;99.90;;;;;;5031990;28;20448;-79
2023/03/27 06:16:39;;;;;;;526.20;499.30;;;2.90;99.90;;;;;;5032646;28;20456;-79
2023/03/27 06:19:06;;;;;;;499.07;473.80;;;2.80;99.90;;;;;;5013107;28;20526;-80
2023/03/27 06:21:34;;;;;;;515.80;489.80;;;2.80;99.90;;;;;;5033332;28;20449;-80
2023/03/27 06:24:04;;;;;;;514.57;488.17;;;2.90;99.90;;;;;;5014985;28;20460;-80
2023/03/27 06:26:32;;;;;;;487.17;463.47;;;2.90;99.90;;;;;;5032739;28;20464;-80
2023/03/27 06:29:00;;;;;;;429.90;410.50;;;3.00;99.90;;;;;;5031780;28;20509;-80
2023/03/27 06:31:27;;;;;;;370.27;353.47;;;2.90;99.90;;;;;;5015706;28;20476;-80
2023/03/27 06:33:55;;;;;;;373.67;357.63;;;2.90;99.90;;;;;;5031974;28;20464;-80
2023/03/27 06:36:21;;;;;;;348.87;334.27;;;3.00;99.90;;;;;;5032386;28;20547;-80
2023/03/27 06:38:55;;;;;;;344.97;330.40;;;3.00;99.90;;;;;;5032124;28;20468;-80
2023/03/27 06:41:28;;;;;;;402.80;385.37;;;3.10;99.90;;;;;;5032087;28;20810;-80
2023/03/27 06:43:55;;;;;;;350.30;334.90;;;3.30;99.90;;;;;;5031827;28;20467;-80
2023/03/27 06:46:23;;;;;;;306.80;293.50;;;3.30;99.90;;;;;;5032110;28;20527;-80
2023/03/27 06:48:50;;;;;;;277.10;265.30;;;3.40;99.90;;;;;;5032100;28;20476;-80
2023/03/27 06:51:21;;;;;;;280.00;268.50;;;3.40;99.90;;;;;;5032189;28;20502;-80
2023/03/27 06:53:54;;;;;;;273.90;261.90;;;3.50;99.90;;;;;;5031758;28;20829;-80
2023/03/27 06:56:22;;;;;;;228.70;219.60;;;3.50;99.90;;;;;;5031555;28;20460;-79
2023/03/27 06:58:49;;;;;;;168.30;161.50;;;3.60;99.90;;;;;;5030640;28;20976;-79
2023/03/27 07:01:16;;;;;;;199.77;192.17;;;3.50;99.90;;;;;;5031743;28;20459;-79
2023/03/27 07:03:42;;;;;;;223.07;213.67;;;3.50;99.90;;;;;;5031206;28;20456;-79
2023/03/27 07:06:09;;;;;;;204.93;197.43;;;3.40;99.90;;;;;;5031935;28;20448;-79
2023/03/27 07:08:36;;;;;;;193.03;185.13;;;3.50;99.90;;;;;;5033891;28;20464;-79
2023/03/27 07:11:05;;;;;;;193.77;186.53;;;3.70;99.90;;;;;;5035561;28;20472;-79
2023/03/27 07:13:32;;;;;;;194.10;186.20;;;3.80;99.90;;;;;;5035256;28;20539;-79
2023/03/27 07:15:59;;;;;;;172.93;165.93;;;3.90;99.90;;;;;;5035452;28;20491;-79
2023/03/27 07:18:26;;;;;;;149.83;144.37;;;3.80;99.90;;;;;;5035576;28;20560;-80
2023/03/27 07:20:53;;;;;;;150.03;144.30;;;3.90;99.90;;;;;;5035534;28;20956;-79
2023/03/27 07:23:19;;;;;;;116.10;111.73;;;4.00;99.90;;;;;;5017898;28;20456;-79
2023/03/27 07:25:48;;;;;;;86.57;83.17;;;3.90;99.90;;;;;;5017645;28;20452;-79
2023/03/27 07:28:19;;;;;;;83.63;80.33;;;4.00;99.90;;;;;;5035132;28;21003;-79
2023/03/27 07:30:47;;;;;;;63.87;60.03;;;4.20;99.90;;;;;;5015012;28;20484;-79
2023/03/27 07:33:14;;;;;;;61.93;59.20;;;4.20;99.90;;;;;;5015021;28;20457;-80
2023/03/27 07:35:47;;;;;;;54.00;51.70;;;4.30;99.90;;;;;;5015053;28;20461;-80
2023/03/27 07:38:15;;;;;;;28.00;26.63;;;4.30;99.90;;;;;;5014646;28;20484;-79
2023/03/27 07:40:44;;;;;;;18.97;17.57;;;4.40;99.90;;;;;;4997603;28;20453;-79
2023/03/27 07:43:11;;;;;;;10.53;9.73;;;4.50;99.90;;;;;;5014953;28;20457;-79
2023/03/27 07:45:40;;;;;;;12.03;10.90;;;4.60;99.90;;;;;;4980969;28;20461;-79
2023/03/27 07:48:09;;;;;;;7.57;4.07;;;4.60;99.90;;;;;;5015034;28;20476;-80
2023/03/27 07:50:36;;;;;;;8.03;5.03;;;4.80;99.90;;;;;;4997531;28;20457;-79
2023/03/27 07:53:05;;;;;;;19.00;4.30;;;5.00;99.90;;;;;;5014593;28;20453;-80
2023/03/27 07:55:32;;;;;;;9.03;2.63;;;5.10;99.90;;;;;;5014619;28;20956;-80
2023/03/27 07:57:59;;;;;;;7.80;2.23;;;5.20;99.90;;;;;;5014302;28;20469;-79
2023/03/27 08:00:26;;;;;;;8.40;3.50;;;5.40;99.90;;;;;;4997071;28;20460;-80
2023/03/27 08:03:05;;;;;;;5.83;2.40;;;5.60;99.90;;;;;;5014126;28;20457;-80
2023/03/27 08:05:32;;;;;;;4.23;2.50;;;5.90;99.90;;;;;;4997276;28;20452;-79
2023/03/27 08:08:00;;;;;;;6.70;2.37;;;6.00;99.90;;;;;;5014446;28;20468;-80
2023/03/27 08:10:27;;;;;;;10.63;2.40;;;6.20;99.90;;;;;;5014131;28;20961;-79
2023/03/27 08:12:54;;;;;;;6.03;2.20;;;6.40;99.90;;;;;;5014318;28;20536;-80
2023/03/27 08:15:23;;;;;;;9.17;1.87;;;6.60;99.90;;;;;;4996582;28;20457;-80
2023/03/27 08:17:53;;;;;;;7.90;3.17;;;6.60;99.90;;;;;;4996615;28;20481;-80
2023/03/27 08:20:22;;;;;;;9.87;2.40;;;6.60;99.90;;;;;;5014056;28;20464;-80
2023/03/27 08:22:50;;;;;;;7.70;2.03;;;6.40;99.90;;;;;;5013852;28;20485;-80
2023/03/27 08:25:17;;;;;;;4.70;2.20;;;6.40;99.90;;;;;;5014194;28;20966;-80
2023/03/27 08:27:44;;;;;;;4.83;1.67;;;6.40;99.90;;;;;;5014062;28;20473;-80
2023/03/27 08:30:13;;;;;;;9.10;3.30;;;6.40;99.90;;;;;;5013756;28;20458;-80
2023/03/27 08:32:40;;;;;;;5.20;1.93;;;6.30;99.90;;;;;;4980697;28;20550;-80
2023/03/27 08:35:08;;;;;;;6.90;1.87;;;6.10;99.90;;;;;;5014208;28;20455;-80
2023/03/27 08:37:36;;;;;;;7.50;2.37;;;6.30;99.90;;;;;;5013595;28;20460;-80
2023/03/27 08:40:12;;;;;;;6.80;1.70;;;6.20;99.90;;;;;;5013899;28;20457;-80
2023/03/27 08:42:42;;;;;;;7.57;2.43;;;6.60;99.90;;;;;;5013712;28;20457;-80
2023/03/27 08:45:19;;;;;;;12.13;2.20;;;6.60;99.90;;;;;;5013650;28;20465;-80
2023/03/27 08:47:50;;;;;;;11.73;2.40;;;6.30;99.90;;;;;;4994079;28;20545;-80
2023/03/27 08:50:27;;;;;;;8.23;2.33;;;6.30;99.90;;;;;;5032835;28;20457;-80
2023/03/27 08:52:57;;;;;;;8.70;2.40;;;6.50;99.90;;;;;;5031963;28;20476;-80
2023/03/27 08:55:32;;;;;;;5.10;1.60;;;6.80;99.90;;;;;;5033261;28;20457;-79
2023/03/27 08:57:59;;;;;;;9.90;3.33;;;6.60;99.40;;;;;;5032879;28;20475;-79
2023/03/27 09:00:34;;;;;;;9.03;2.03;;;6.60;98.00;;;;;;5033206;28;20460;-79
2023/03/27 09:03:07;;;;;;;6.47;2.07;;;6.40;95.90;;;;;;5033094;28;20879;-78
2023/03/27 09:05:41;;;;;;;12.33;2.27;;;6.60;98.80;;;;;;5033160;28;20547;-78
2023/03/27 09:08:16;;;;;;;6.30;1.93;;;7.20;95.10;;;;;;5033055;28;20504;-79
2023/03/27 09:10:48;;;;;;;6.23;1.70;;;7.30;97.60;;;;;;5033170;28;20464;-79
2023/03/27 09:13:20;;;;;;;6.30;1.80;;;7.60;95.30;;;;;;5031763;28;20460;-79
2023/03/27 09:15:55;;;;;;;8.20;2.73;;;7.40;95.80;;;;;;5033215;28;20888;-78
2023/03/27 09:18:27;;;;;;;10.03;3.00;;;6.60;96.70;;;;;;5032864;28;20475;-79
2023/03/27 09:20:58;;;;;;;9.93;1.77;;;6.30;96.00;;;;;;5031966;28;20467;-79
2023/03/27 09:23:30;;;;;;;7.20;1.60;;;6.20;95.30;;;;;;5032655;28;20456;-78
2023/03/27 09:26:02;;;;;;;6.13;3.03;;;6.40;94.30;;;;;;5032857;28;20456;-78
2023/03/27 09:28:34;;;;;;;7.30;2.30;;;7.30;95.50;;;;;;5031942;28;20476;-79
2023/03/27 09:31:16;;;;;;;6.67;1.93;;;7.60;94.20;;;;;;5030098;28;20464;-78
2023/03/27 09:33:43;;;;;;;5.97;2.07;;;7.40;94.70;;;;;;5030530;28;20539;-79
2023/03/27 09:36:10;;;;;;;10.30;2.37;;;6.80;93.90;;;;;;5032113;28;20463;-79
2023/03/27 09:38:43;;;;;;;9.03;2.33;;;6.70;96.80;;;;;;5029847;28;21033;-79
2023/03/27 09:41:14;;;;;;;10.50;2.13;;;7.50;94.10;;;;;;5031991;28;20466;-79
2023/03/27 09:43:45;;;;;;;7.13;2.20;;;7.90;91.40;;;;;;5014963;28;20456;-79
2023/03/27 09:46:18;;;;;;;6.37;1.17;;;7.90;90.60;;;;;;5063772;23;20876;-79
2023/03/27 09:48:50;;;;;;;6.83;2.43;;;7.90;90.60;;;;;;5071924;28;20502;-79
2023/03/27 09:51:39;;;;;;;12.57;2.57;;;7.70;90.50;;;;;;5071836;28;20480;-78
2023/03/27 09:54:07;;;;;;;10.30;2.00;;;8.50;89.70;;;;;;5071048;28;20460;-79
2023/03/27 09:56:39;;;;;;;6.57;1.73;;;8.60;90.50;;;;;;5072085;28;20447;-79
2023/03/27 09:59:20;;;;;;;6.20;1.93;;;8.50;85.70;;;;;;5071961;28;20467;-79
2023/03/27 10:01:48;;;;;;;5.80;2.03;;;8.20;91.50;;;;;;5072430;28;20457;-79
2023/03/27 10:04:17;;;;;;;6.80;1.53;;;8.00;90.60;;;;;;5072022;28;20446;-79
2023/03/27 10:06:48;;;;;;;5.60;1.80;;;8.00;88.00;;;;;;5071439;28;20458;-79
2023/03/27 10:09:26;;;;;;;7.33;2.07;;;8.10;90.20;;;;;;5071244;28;20998;-78
2023/03/27 10:12:03;;;;;;;5.13;1.90;;;8.30;90.80;;;;;;5071845;28;20861;-79
2023/03/27 10:14:33;;;;;;;10.77;1.70;;;8.10;90.40;;;;;;5071781;28;20531;-79
2023/03/27 10:17:00;;;;;;;5.20;1.33;;;8.00;89.30;;;;;;5071931;28;20490;-79
2023/03/27 10:19:30;;;;;;;6.20;1.70;;;7.80;90.60;;;;;;5071962;28;20474;-79
2023/03/27 10:22:03;;;;;;;7.07;1.93;;;7.50;90.40;;;;;;5071762;28;20542;-79
2023/03/27 10:24:34;;;;;;;7.10;1.73;;;7.50;90.40;;;;;;5071626;28;20990;-79
2023/03/27 10:27:07;;;;;;;10.60;1.87;;;7.30;90.70;;;;;;5071775;28;20454;-78
2023/03/27 10:29:37;;;;;;;7.30;1.70;;;7.10;91.20;;;;;;5071879;28;20475;-79
2023/03/27 10:32:05;;;;;;;11.77;2.30;;;7.30;90.40;;;;;;5071749;28;20474;-79
2023/03/27 10:34:38;;;;;;;6.00;1.37;;;8.40;90.70;;;;;;5071619;28;20460;-79
2023/03/27 10:37:20;;;;;;;7.80;1.80;;;8.80;82.60;;;;;;5071473;28;20454;-79
2023/03/27 10:39:48;;;;;;;10.60;2.07;;;8.70;81.90;;;;;;5071823;28;20485;-79
2023/03/27 10:42:17;;;;;;;6.33;1.70;;;9.40;77.40;;;;;;5070327;28;20934;-79
2023/03/27 10:44:48;;;;;;;4.93;1.70;;;9.50;78.40;;;;;;5071582;28;20454;-80
2023/03/27 10:47:24;;;;;;;11.93;1.80;;;8.80;81.60;;;;;;5071778;28;20454;-79
2023/03/27 10:50:01;;;;;;;7.90;1.93;;;8.30;84.30;;;;;;5071663;28;20917;-79
2023/03/27 10:52:33;;;;;;;6.93;1.30;;;7.60;85.70;;;;;;5070862;28;20486;-79
2023/03/27 10:55:22;;;;;;;5.80;1.33;;;7.30;99.90;;;;;;5071815;28;20454;-79
2023/03/27 10:57:53;;;;;;;6.10;1.50;;;6.80;93.90;;;;;;5070099;28;20528;-78
2023/03/27 11:00:31;;;;;;;6.47;1.60;;;6.70;96.40;;;;;;5071492;28;20469;-79
2023/03/27 11:03:03;;;;;;;4.33;1.10;;;7.00;92.00;;;;;;5070324;28;20457;-79
2023/03/27 11:05:35;;;;;;;7.63;1.60;;;8.10;92.50;;;;;;5070794;28;20461;-81
2023/03/27 11:08:07;;;;;;;9.10;1.40;;;9.00;90.10;;;;;;5069918;28;20482;-78
2023/03/27 11:10:41;;;;;;;5.30;1.30;;;9.60;85.30;;;;;;5070216;28;20541;-79
2023/03/27 11:13:14;;;;;;;4.30;1.20;;;10.10;77.00;;;;;;5071015;28;20481;-79
2023/03/27 11:15:45;;;;;;;4.20;1.20;;;10.00;73.70;;;;;;5071455;28;20454;-79
2023/03/27 11:18:17;;;;;;;4.50;1.20;;;10.00;76.90;;;;;;5069749;28;20478;-79
2023/03/27 11:20:49;;;;;;;6.87;1.30;;;10.70;71.70;;;;;;5071115;28;20965;-79
2023/03/27 11:23:21;;;;;;;8.13;1.40;;;11.50;66.60;;;;;;5071187;28;20458;-79
2023/03/27 11:25:52;;;;;;;4.73;1.20;;;11.80;61.20;;;;;;5071282;28;20966;-79
2023/03/27 11:28:23;;;;;;;5.07;1.10;;;10.40;72.20;;;;;;5071296;28;20470;-78
2023/03/27 11:30:55;;;;;;;4.10;1.20;;;9.80;73.40;;;;;;5071145;28;20828;-79
2023/03/27 11:33:49;;;;;;;5.67;1.40;;;10.00;73.20;;;;;;5070351;28;20481;-80
2023/03/27 11:36:38;;;;;;;6.10;1.57;;;9.60;74.20;;;;;;5071182;28;20446;-79
2023/03/27 11:39:14;;;;;;;5.50;1.50;;;9.30;78.40;;;;;;5070841;28;21050;-78
2023/03/27 11:41:44;;;;;;;4.77;1.20;;;7.50;90.40;;;;;;5070818;28;20457;-78
2023/03/27 11:44:11;;;;;;;3.80;1.00;;;6.80;92.10;;;;;;5070547;28;20450;-80
2023/03/27 11:47:05;;;;;;;4.83;1.20;;;7.70;94.60;;;;;;5070738;28;20458;-79
2023/03/27 11:49:54;;;;;;;4.97;1.00;;;7.40;99.90;;;;;;5063710;28;20478;-79
2023/03/27 11:52:37;;;;;;;4.33;1.00;;;7.10;96.90;;;;;;5060941;28;20561;-78
2023/03/27 11:55:14;;;;;;;5.00;1.20;;;6.40;98.20;;;;;;5073147;28;20727;-78
2023/03/27 11:57:55;;;;;;;5.87;1.40;;;5.90;99.90;;;;;;5073972;28;20503;-79
2023/03/27 12:00:31;;;;;;;4.53;1.10;;;4.40;99.90;;;;;;5074235;28;20461;-79
2023/03/27 12:03:36;;;;;;;5.03;1.07;;;4.10;99.90;;;;;;5074113;28;21043;-79
2023/03/27 12:06:15;;;;;;;4.47;1.47;;;3.70;99.90;;;;;;5072776;28;20506;-79
2023/03/27 12:08:53;;;;;;;4.77;1.57;;;4.10;99.90;;;;;;5073784;28;20470;-79
2023/03/27 12:11:24;;;;;;;4.00;1.20;;;4.00;99.90;;;;;;5074330;28;20489;-80
2023/03/27 12:14:30;;;;;;;3.97;1.30;;;4.20;99.90;;;;;;5073815;28;20485;-79
2023/03/27 12:17:31;;;;;;;4.33;1.10;;;5.00;99.90;;;;;;5073803;28;20877;-79
2023/03/27 12:20:18;;;;;;;3.50;1.10;;;6.60;99.90;;;;;;5073641;28;20456;-79
2023/03/27 12:22:55;;;;;;;5.90;1.30;;;7.60;99.90;;;;;;5072446;28;20442;-79
2023/03/27 12:25:50;;;;;;;4.07;0.97;;;8.30;99.90;;;;;;5069575;28;20446;-79
2023/03/27 12:28:31;;;;;;;8.40;2.80;;;8.70;92.30;;;;;;5073144;28;20528;-79
2023/03/27 12:31:10;;;;;;;8.00;1.37;;;8.40;96.80;;;;;;5072255;28;20450;-79
2023/03/27 12:33:46;;;;;;;9.27;1.60;;;7.80;96.60;;;;;;5073730;28;20459;-79
2023/03/27 12:36:18;;;;;;;9.57;2.47;;;7.30;95.50;;;;;;5073382;28;20470;-78
2023/03/27 12:38:45;;;;;;;7.30;1.80;;;7.40;97.00;;;;;;5073546;28;20501;-78
2023/03/27 12:41:21;;;;;;;6.90;1.40;;;7.80;97.20;;;;;;5073511;28;20571;-78
2023/03/27 12:43:53;;;;;;;4.80;1.30;;;8.20;97.40;;;;;;5072078;28;20996;-78
2023/03/27 12:46:35;;;;;;;6.47;2.47;;;9.20;92.60;;;;;;5072932;28;20531;-78
2023/03/27 12:49:23;;;;;;;7.27;1.30;;;9.90;85.50;;;;;;5073414;28;20479;-79
2023/03/27 12:52:04;;;;;;;6.50;2.13;;;10.70;88.00;;;;;;5073248;28;20451;-79
2023/03/27 12:54:32;;;;;;;6.40;1.30;;;11.40;79.00;;;;;;5073180;28;20486;-79
2023/03/27 12:57:05;;;;;;;7.90;1.43;;;11.60;78.40;;;;;;5073434;28;20460;-79